Time;durP1;ratioP1;P1;durP2;ratioP2;P2;SDS_P1;SDS_P2;PMS_P1;PMS_P2;Temp;Humidity;BMP_temperature;BMP_pressure;BME280_temperature;BME280_humidity;BME280_pressure;Samples;Min_cycle;Max_cycle;Signal;HPM_P1;HPM_P2
2023/11/17 00:01:20;;;;;;;49.20;24.83;;;;;;;;;;4389331;32;355777;-84
2023/11/17 00:03:47;;;;;;;45.33;25.03;;;;;;;;;;4400817;32;318040;-83
2023/11/17 00:06:14;;;;;;;48.20;27.30;;;;;;;;;;4399198;32;318293;-83
2023/11/17 00:08:42;;;;;;;48.70;32.30;;;;;;;;;;4389338;32;318714;-83
2023/11/17 00:11:10;;;;;;;61.87;33.37;;;;;;;;;;4400389;32;318229;-83
2023/11/17 00:13:38;;;;;;;60.42;35.05;;;;;;;;;;4389223;32;331116;-83
2023/11/17 00:16:06;;;;;;;61.63;36.00;;;;;;;;;;4398555;32;340165;-83
2023/11/17 00:18:34;;;;;;;76.93;40.67;;;;;;;;;;4384624;32;354644;-83
2023/11/17 00:21:02;;;;;;;61.70;38.53;;;;;;;;;;4400326;32;318622;-83
2023/11/17 00:23:29;;;;;;;64.10;41.13;;;;;;;;;;4389580;32;318373;-83
2023/11/17 00:25:57;;;;;;;60.80;37.83;;;;;;;;;;4401541;32;317744;-83
2023/11/17 00:28:24;;;;;;;63.67;38.77;;;;;;;;;;4378788;32;318004;-83
2023/11/17 00:30:51;;;;;;;69.03;41.57;;;;;;;;;;4399249;32;318442;-81
2023/11/17 00:33:19;;;;;;;67.20;38.33;;;;;;;;;;4395091;32;318416;-83
2023/11/17 00:35:46;;;;;;;68.10;40.57;;;;;;;;;;4401881;32;317856;-83
2023/11/17 00:38:13;;;;;;;76.13;42.70;;;;;;;;;;4388108;32;336171;-84
2023/11/17 00:40:40;;;;;;;71.93;40.57;;;;;;;;;;4399951;32;317852;-83
2023/11/17 00:43:09;;;;;;;73.53;43.50;;;;;;;;;;4400019;32;318752;-83
2023/11/17 00:45:36;;;;;;;67.83;41.37;;;;;;;;;;4386661;32;419207;-83
2023/11/17 00:48:03;;;;;;;64.13;38.27;;;;;;;;;;4399019;32;318087;-83
2023/11/17 00:50:32;;;;;;;72.20;37.63;;;;;;;;;;4388584;32;318291;-83
2023/11/17 00:53:04;;;;;;;81.13;40.57;;;;;;;;;;4398536;32;317605;-83
2023/11/17 00:55:31;;;;;;;71.70;39.40;;;;;;;;;;4389466;32;318362;-83
2023/11/17 00:57:59;;;;;;;62.40;36.70;;;;;;;;;;4399672;32;318463;-83
2023/11/17 01:00:27;;;;;;;61.73;36.20;;;;;;;;;;4387770;32;318011;-83
2023/11/17 01:02:55;;;;;;;56.60;33.00;;;;;;;;;;4400098;32;318087;-83
2023/11/17 01:05:21;;;;;;;57.57;33.00;;;;;;;;;;4388327;32;318257;-83
2023/11/17 01:07:48;;;;;;;50.57;29.23;;;;;;;;;;4399190;32;333415;-83
2023/11/17 01:10:15;;;;;;;58.70;29.50;;;;;;;;;;4389132;32;318377;-83
2023/11/17 01:12:44;;;;;;;42.70;27.97;;;;;;;;;;4399628;32;318205;-83
2023/11/17 01:15:13;;;;;;;42.07;25.53;;;;;;;;;;4386398;32;318683;-83
2023/11/17 01:17:42;;;;;;;43.17;26.13;;;;;;;;;;4391783;32;317657;-83
2023/11/17 01:20:10;;;;;;;50.03;26.87;;;;;;;;;;4382391;32;318346;-84
2023/11/17 01:22:36;;;;;;;45.27;25.50;;;;;;;;;;4383653;32;317750;-83
2023/11/17 01:25:07;;;;;;;42.27;26.03;;;;;;;;;;4383551;32;343485;-83
2023/11/17 01:27:34;;;;;;;48.30;28.53;;;;;;;;;;4356965;32;418486;-83
2023/11/17 01:30:01;;;;;;;42.20;26.57;;;;;;;;;;4368801;32;318393;-83
2023/11/17 01:32:29;;;;;;;36.30;24.67;;;;;;;;;;4358209;32;318434;-83
2023/11/17 01:34:57;;;;;;;41.63;26.33;;;;;;;;;;4367819;32;318397;-83
2023/11/17 01:37:24;;;;;;;45.13;28.33;;;;;;;;;;4357887;32;318015;-83
2023/11/17 01:39:51;;;;;;;53.73;30.27;;;;;;;;;;4367972;32;316727;-83
2023/11/17 01:42:18;;;;;;;46.63;29.43;;;;;;;;;;4358868;32;318887;-83
2023/11/17 01:44:45;;;;;;;47.43;29.37;;;;;;;;;;4368657;32;318596;-83
2023/11/17 01:47:12;;;;;;;54.80;31.30;;;;;;;;;;4357604;32;318745;-83
2023/11/17 01:49:38;;;;;;;46.00;30.03;;;;;;;;;;4367436;32;317799;-83
2023/11/17 01:52:07;;;;;;;44.33;30.73;;;;;;;;;;4368837;32;318734;-83
2023/11/17 01:54:35;;;;;;;51.67;32.40;;;;;;;;;;4347072;32;418620;-83
2023/11/17 01:57:03;;;;;;;53.70;31.37;;;;;;;;;;4352957;32;318027;-83
2023/11/17 01:59:29;;;;;;;51.63;31.33;;;;;;;;;;4342255;32;318376;-83
2023/11/17 02:01:56;;;;;;;54.73;30.53;;;;;;;;;;4353695;32;318284;-83
2023/11/17 02:04:23;;;;;;;50.60;31.40;;;;;;;;;;4343537;32;318639;-83
2023/11/17 02:07:08;;;;;;;51.60;31.23;;;;;;;;;;4353853;32;318265;-83
2023/11/17 02:09:47;;;;;;;49.83;32.60;;;;;;;;;;4339732;32;418714;-83
2023/11/17 02:12:24;;;;;;;52.20;33.17;;;;;;;;;;4342686;32;318059;-83
2023/11/17 02:14:57;;;;;;;51.37;32.30;;;;;;;;;;4353451;32;317907;-83
2023/11/17 02:17:28;;;;;;;58.17;35.10;;;;;;;;;;4342446;32;353966;-83
2023/11/17 02:19:59;;;;;;;60.53;38.30;;;;;;;;;;4375881;32;318213;-83
2023/11/17 02:22:30;;;;;;;58.77;35.53;;;;;;;;;;4378508;32;317699;-83
2023/11/17 02:25:15;;;;;;;58.07;34.90;;;;;;;;;;4397318;32;317899;-83
2023/11/17 02:27:51;;;;;;;63.10;36.37;;;;;;;;;;4384406;32;418544;-83
2023/11/17 02:30:20;;;;;;;56.77;36.10;;;;;;;;;;4387406;32;318457;-84
2023/11/17 02:32:48;;;;;;;55.57;34.17;;;;;;;;;;4397254;32;317750;-83
2023/11/17 02:35:16;;;;;;;58.43;33.43;;;;;;;;;;4387943;32;318307;-83
2023/11/17 02:37:43;;;;;;;58.23;38.90;;;;;;;;;;4396962;32;318389;-83
2023/11/17 02:40:18;;;;;;;55.97;36.43;;;;;;;;;;4388108;32;317898;-84
2023/11/17 02:42:47;;;;;;;55.97;34.97;;;;;;;;;;4398485;32;318459;-83
2023/11/17 02:45:19;;;;;;;49.63;32.93;;;;;;;;;;4387742;32;319081;-83
2023/11/17 02:47:49;;;;;;;55.37;34.37;;;;;;;;;;4398641;32;317086;-83
2023/11/17 02:50:21;;;;;;;52.40;32.40;;;;;;;;;;4388017;32;318356;-83
2023/11/17 02:53:10;;;;;;;58.40;31.63;;;;;;;;;;4398098;32;318228;-83
2023/11/17 02:55:37;;;;;;;65.30;33.87;;;;;;;;;;4385752;32;390584;-83
2023/11/17 02:58:05;;;;;;;52.67;34.60;;;;;;;;;;4397734;32;318552;-83
2023/11/17 03:00:32;;;;;;;51.27;32.70;;;;;;;;;;4387507;32;318660;-83
2023/11/17 03:03:01;;;;;;;50.03;32.63;;;;;;;;;;4398196;32;318407;-83
2023/11/17 03:05:28;;;;;;;52.50;31.13;;;;;;;;;;4387932;32;318213;-83
2023/11/17 03:07:55;;;;;;;49.60;30.03;;;;;;;;;;4396949;32;318247;-83
2023/11/17 03:10:22;;;;;;;47.77;30.60;;;;;;;;;;4386421;32;318649;-83
2023/11/17 03:12:55;;;;;;;48.70;31.67;;;;;;;;;;4397473;32;318142;-83
2023/11/17 03:15:22;;;;;;;45.00;30.70;;;;;;;;;;4386134;32;318797;-83
2023/11/17 03:17:49;;;;;;;41.43;27.67;;;;;;;;;;4396324;32;318393;-83
2023/11/17 03:20:18;;;;;;;42.87;28.87;;;;;;;;;;4387573;32;318432;-83
2023/11/17 03:22:45;;;;;;;46.30;29.50;;;;;;;;;;4397300;32;316962;-84
2023/11/17 03:25:15;;;;;;;45.47;27.50;;;;;;;;;;4386585;32;318453;-84
2023/11/17 03:27:43;;;;;;;36.30;26.20;;;;;;;;;;4396459;32;318268;-84
2023/11/17 03:30:11;;;;;;;36.60;25.43;;;;;;;;;;4387255;32;318738;-84
2023/11/17 03:32:38;;;;;;;36.77;25.20;;;;;;;;;;4398059;32;318255;-84
2023/11/17 03:35:06;;;;;;;45.57;26.90;;;;;;;;;;4396522;32;317896;-83
2023/11/17 03:37:34;;;;;;;37.03;27.63;;;;;;;;;;4383621;32;417913;-83
2023/11/17 03:40:06;;;;;;;37.97;24.73;;;;;;;;;;4396754;32;318643;-84
2023/11/17 03:42:34;;;;;;;38.10;24.37;;;;;;;;;;4384820;32;417640;-84
2023/11/17 03:45:07;;;;;;;41.40;27.73;;;;;;;;;;4397296;32;317973;-84
2023/11/17 03:47:34;;;;;;;32.80;23.50;;;;;;;;;;4383002;32;419325;-84
2023/11/17 03:50:01;;;;;;;40.43;22.73;;;;;;;;;;4397526;32;318473;-84
2023/11/17 03:52:29;;;;;;;33.87;20.57;;;;;;;;;;4387488;32;318245;-84
2023/11/17 03:55:00;;;;;;;31.93;21.37;;;;;;;;;;4397288;32;317733;-84
2023/11/17 03:57:27;;;;;;;36.33;21.93;;;;;;;;;;4386228;32;317936;-84
2023/11/17 03:59:54;;;;;;;37.70;22.90;;;;;;;;;;4397347;32;318300;-84
2023/11/17 04:02:22;;;;;;;30.40;20.53;;;;;;;;;;4386419;32;318686;-84
2023/11/17 04:04:49;;;;;;;38.87;23.70;;;;;;;;;;4396410;32;317847;-84
2023/11/17 04:07:16;;;;;;;30.50;20.93;;;;;;;;;;4386272;32;318784;-84
2023/11/17 04:09:43;;;;;;;34.07;21.80;;;;;;;;;;4396433;32;318450;-84
2023/11/17 04:12:14;;;;;;;32.73;21.33;;;;;;;;;;4386549;32;318443;-84
2023/11/17 04:14:41;;;;;;;31.90;21.67;;;;;;;;;;4396900;32;318194;-84
2023/11/17 04:17:08;;;;;;;28.77;19.97;;;;;;;;;;4397640;32;318547;-84
2023/11/17 04:19:35;;;;;;;31.63;19.13;;;;;;;;;;4383038;32;417732;-84
2023/11/17 04:22:03;;;;;;;31.67;21.53;;;;;;;;;;4397706;32;318353;-84
2023/11/17 04:24:30;;;;;;;38.70;23.10;;;;;;;;;;4391461;32;320906;-84
2023/11/17 04:26:57;;;;;;;40.73;25.77;;;;;;;;;;4403396;32;318042;-84
2023/11/17 04:29:25;;;;;;;37.37;25.53;;;;;;;;;;4395480;32;318543;-84
2023/11/17 04:31:54;;;;;;;40.87;25.77;;;;;;;;;;4409729;32;318387;-83
2023/11/17 04:34:22;;;;;;;35.73;24.57;;;;;;;;;;4394766;32;318447;-84
2023/11/17 04:36:49;;;;;;;41.27;25.13;;;;;;;;;;4399430;32;317898;-84
2023/11/17 04:39:18;;;;;;;35.83;24.87;;;;;;;;;;4388883;32;327833;-84
2023/11/17 04:41:45;;;;;;;41.87;26.50;;;;;;;;;;4399384;32;317821;-84
2023/11/17 04:44:11;;;;;;;38.93;26.57;;;;;;;;;;4387098;32;326112;-84
2023/11/17 04:46:40;;;;;;;42.33;25.80;;;;;;;;;;4400525;32;317672;-84
2023/11/17 04:49:06;;;;;;;46.20;27.10;;;;;;;;;;4399553;32;317894;-84
2023/11/17 04:51:35;;;;;;;49.00;27.80;;;;;;;;;;4389884;32;318224;-84
2023/11/17 04:54:01;;;;;;;39.93;26.13;;;;;;;;;;4399953;32;318761;-84
2023/11/17 04:56:30;;;;;;;48.67;29.80;;;;;;;;;;4389376;32;318218;-84
2023/11/17 04:58:57;;;;;;;45.27;27.97;;;;;;;;;;4399411;32;317609;-84
2023/11/17 05:01:24;;;;;;;48.30;26.00;;;;;;;;;;4388886;32;325913;-84
2023/11/17 05:03:52;;;;;;;42.70;26.67;;;;;;;;;;4399774;32;319782;-84
2023/11/17 05:06:22;;;;;;;41.37;25.70;;;;;;;;;;4389405;32;318370;-84
2023/11/17 05:08:49;;;;;;;40.90;25.50;;;;;;;;;;4399645;32;318867;-83
2023/11/17 05:11:17;;;;;;;39.80;24.00;;;;;;;;;;4388983;32;318273;-83
2023/11/17 05:13:44;;;;;;;50.13;28.03;;;;;;;;;;4398928;32;318771;-84
2023/11/17 05:16:13;;;;;;;47.53;26.80;;;;;;;;;;4388093;32;318413;-84
2023/11/17 05:18:42;;;;;;;42.53;26.10;;;;;;;;;;4399354;32;318623;-83
2023/11/17 05:21:12;;;;;;;38.87;26.97;;;;;;;;;;4388224;32;318190;-84
2023/11/17 05:23:39;;;;;;;49.63;28.57;;;;;;;;;;4399639;32;318305;-84
2023/11/17 05:26:07;;;;;;;54.93;30.53;;;;;;;;;;4397998;32;318399;-84
2023/11/17 05:28:34;;;;;;;64.50;35.40;;;;;;;;;;4385940;32;374231;-82
2023/11/17 05:31:02;;;;;;;54.53;32.70;;;;;;;;;;4399335;32;318512;-84
2023/11/17 05:33:29;;;;;;;50.57;31.03;;;;;;;;;;4389258;32;318742;-84
2023/11/17 05:35:56;;;;;;;48.00;30.63;;;;;;;;;;4397713;32;318730;-84
2023/11/17 05:38:25;;;;;;;54.13;33.57;;;;;;;;;;4387435;32;318231;-84
2023/11/17 05:40:51;;;;;;;50.80;31.83;;;;;;;;;;4399088;32;318132;-83
2023/11/17 05:43:18;;;;;;;59.43;33.13;;;;;;;;;;4388368;32;318627;-84
2023/11/17 05:45:50;;;;;;;49.33;28.97;;;;;;;;;;4398961;32;317926;-83
2023/11/17 05:48:16;;;;;;;54.87;33.33;;;;;;;;;;4389030;32;318026;-84
2023/11/17 05:50:43;;;;;;;48.47;29.73;;;;;;;;;;4399047;32;318523;-84
2023/11/17 05:53:10;;;;;;;46.00;29.43;;;;;;;;;;4387757;32;318198;-84
2023/11/17 05:55:38;;;;;;;44.47;25.90;;;;;;;;;;4395732;32;317771;-84
2023/11/17 05:58:07;;;;;;;48.27;27.37;;;;;;;;;;4397710;32;318145;-83
2023/11/17 06:00:34;;;;;;;49.90;27.77;;;;;;;;;;4383988;32;419442;-83
2023/11/17 06:03:01;;;;;;;53.70;27.57;;;;;;;;;;4398558;32;318318;-83
2023/11/17 06:05:27;;;;;;;36.17;24.23;;;;;;;;;;4387952;32;318620;-83
2023/11/17 06:07:54;;;;;;;37.10;23.50;;;;;;;;;;4398370;32;318427;-83
2023/11/17 06:10:21;;;;;;;40.70;23.20;;;;;;;;;;4387144;32;318413;-83
2023/11/17 06:12:50;;;;;;;47.77;28.13;;;;;;;;;;4398169;32;318256;-83
2023/11/17 06:15:20;;;;;;;42.87;23.87;;;;;;;;;;4387868;32;318265;-82
2023/11/17 06:17:47;;;;;;;35.67;21.90;;;;;;;;;;4398386;32;318389;-83
2023/11/17 06:20:14;;;;;;;48.80;28.27;;;;;;;;;;4387677;32;318531;-85
2023/11/17 06:22:40;;;;;;;59.97;35.90;;;;;;;;;;4397199;32;318413;-84
2023/11/17 06:25:08;;;;;;;49.53;31.13;;;;;;;;;;4397969;32;318497;-84
2023/11/17 06:27:36;;;;;;;62.17;32.27;;;;;;;;;;4384080;32;417712;-81
2023/11/17 06:30:06;;;;;;;52.47;32.13;;;;;;;;;;4395555;32;349044;-81
2023/11/17 06:32:33;;;;;;;52.67;30.07;;;;;;;;;;4383821;32;419714;-81
2023/11/17 06:35:00;;;;;;;60.53;31.50;;;;;;;;;;4397785;32;318418;-82
2023/11/17 06:37:26;;;;;;;64.10;36.63;;;;;;;;;;4386088;32;318521;-81
2023/11/17 06:39:54;;;;;;;63.77;37.23;;;;;;;;;;4396327;32;318399;-82
2023/11/17 06:42:22;;;;;;;47.33;31.50;;;;;;;;;;4386526;32;318236;-82
2023/11/17 06:44:51;;;;;;;51.23;29.27;;;;;;;;;;4394443;32;318074;-82
2023/11/17 06:47:19;;;;;;;43.33;26.40;;;;;;;;;;4384733;32;318616;-82
2023/11/17 06:49:47;;;;;;;58.53;30.87;;;;;;;;;;4391312;32;357527;-82
2023/11/17 06:52:14;;;;;;;56.37;31.80;;;;;;;;;;4390782;32;318188;-81
2023/11/17 06:54:42;;;;;;;84.37;44.43;;;;;;;;;;4395409;32;318463;-81
2023/11/17 06:57:10;;;;;;;69.47;40.23;;;;;;;;;;4384973;32;317744;-82
2023/11/17 06:59:37;;;;;;;53.83;31.20;;;;;;;;;;4402643;32;318941;-81
2023/11/17 07:02:05;;;;;;;51.70;25.60;;;;;;;;;;4399899;32;317713;-82
2023/11/17 07:04:33;;;;;;;69.20;39.17;;;;;;;;;;4384683;32;318418;-84
2023/11/17 07:07:00;;;;;;;123.03;74.10;;;;;;;;;;4391664;32;318114;-81
2023/11/17 07:09:30;;;;;;;117.13;70.10;;;;;;;;;;4393119;32;319648;-83
2023/11/17 07:12:01;;;;;;;79.23;50.60;;;;;;;;;;4412054;32;319775;-83
2023/11/17 07:14:30;;;;;;;74.93;41.87;;;;;;;;;;4400311;32;318383;-81
2023/11/17 07:16:58;;;;;;;73.23;44.97;;;;;;;;;;4410701;32;318449;-84
2023/11/17 07:19:24;;;;;;;75.87;50.50;;;;;;;;;;4401446;32;318899;-81
2023/11/17 07:21:53;;;;;;;94.30;56.83;;;;;;;;;;4406186;32;318587;-83
2023/11/17 07:24:19;;;;;;;102.77;60.87;;;;;;;;;;4383957;32;317955;-82
2023/11/17 07:26:46;;;;;;;100.37;62.17;;;;;;;;;;4396438;32;319350;-82
2023/11/17 07:29:15;;;;;;;92.23;59.33;;;;;;;;;;4373917;32;318881;-82
2023/11/17 07:31:44;;;;;;;101.63;61.17;;;;;;;;;;4399052;32;318802;-83
2023/11/17 07:34:15;;;;;;;97.83;56.40;;;;;;;;;;4386039;32;319873;-84
2023/11/17 07:36:42;;;;;;;84.40;48.63;;;;;;;;;;4396175;32;318624;-84
2023/11/17 07:39:12;;;;;;;87.03;48.87;;;;;;;;;;4382845;32;318075;-84
2023/11/17 07:41:40;;;;;;;96.20;50.13;;;;;;;;;;4395884;32;317785;-84
2023/11/17 07:44:08;;;;;;;79.57;48.17;;;;;;;;;;4397214;32;318438;-84
2023/11/17 07:46:35;;;;;;;72.93;40.03;;;;;;;;;;4382943;32;419787;-84
2023/11/17 07:49:03;;;;;;;93.03;53.73;;;;;;;;;;4394660;32;317885;-83
2023/11/17 07:51:30;;;;;;;77.87;46.10;;;;;;;;;;4381660;32;317866;-83
2023/11/17 07:53:57;;;;;;;74.07;40.53;;;;;;;;;;4396991;32;318242;-83
2023/11/17 07:56:27;;;;;;;71.33;43.37;;;;;;;;;;4386427;32;327037;-83
2023/11/17 07:58:56;;;;;;;73.77;49.10;;;;;;;;;;4396747;32;318272;-83
2023/11/17 08:01:23;;;;;;;78.93;44.60;;;;;;;;;;4384640;32;318261;-83
2023/11/17 08:03:50;;;;;;;81.10;53.77;;;;;;;;;;4400585;32;318163;-83
2023/11/17 08:06:18;;;;;;;113.10;74.80;;;;;;;;;;4390199;32;318276;-83
2023/11/17 08:08:46;;;;;;;73.33;46.93;;;;;;;;;;4399089;32;319993;-84
2023/11/17 08:11:14;;;;;;;64.03;41.97;;;;;;;;;;4389446;32;318708;-83
2023/11/17 08:13:43;;;;;;;63.53;40.83;;;;;;;;;;4398832;32;318455;-83
2023/11/17 08:16:10;;;;;;;68.80;38.60;;;;;;;;;;4390548;32;318460;-83
2023/11/17 08:18:37;;;;;;;61.03;42.57;;;;;;;;;;4400344;32;318420;-82
2023/11/17 08:21:06;;;;;;;60.70;40.47;;;;;;;;;;4399596;32;318310;-83
2023/11/17 08:23:33;;;;;;;54.13;36.17;;;;;;;;;;4384785;32;319433;-82
2023/11/17 08:26:00;;;;;;;69.07;34.23;;;;;;;;;;4400981;32;318270;-82
2023/11/17 08:28:28;;;;;;;56.50;33.63;;;;;;;;;;4386739;32;319223;-83
2023/11/17 08:30:57;;;;;;;68.83;36.23;;;;;;;;;;4400830;32;319591;-82
2023/11/17 08:33:24;;;;;;;55.13;35.43;;;;;;;;;;4384350;32;319409;-83
2023/11/17 08:35:51;;;;;;;58.60;34.27;;;;;;;;;;4389554;32;318851;-82
2023/11/17 08:38:20;;;;;;;59.50;34.40;;;;;;;;;;4381928;32;319741;-83
2023/11/17 08:40:47;;;;;;;49.20;30.57;;;;;;;;;;4385815;32;319324;-83
2023/11/17 08:43:18;;;;;;;38.77;22.77;;;;;;;;;;4388801;32;319398;-83
2023/11/17 08:45:47;;;;;;;34.03;21.03;;;;;;;;;;4393558;32;319231;-83
2023/11/17 08:48:16;;;;;;;27.23;17.57;;;;;;;;;;4385327;32;319426;-83
2023/11/17 08:50:43;;;;;;;50.47;29.20;;;;;;;;;;4397021;32;319470;-81
2023/11/17 08:53:10;;;;;;;39.87;26.40;;;;;;;;;;4386570;32;319544;-83
2023/11/17 08:55:36;;;;;;;36.07;23.00;;;;;;;;;;4390934;32;319188;-81
2023/11/17 08:58:05;;;;;;;43.03;26.23;;;;;;;;;;4396570;32;320931;-81
2023/11/17 09:00:31;;;;;;;40.27;24.80;;;;;;;;;;4385445;32;319477;-81
2023/11/17 09:02:59;;;;;;;35.30;20.27;;;;;;;;;;4393210;32;319820;-81
2023/11/17 09:05:27;;;;;;;37.80;16.83;;;;;;;;;;4386821;32;319646;-81
2023/11/17 09:07:55;;;;;;;19.27;10.67;;;;;;;;;;4404106;32;319534;-81
2023/11/17 09:10:26;;;;;;;14.70;9.33;;;;;;;;;;4385489;32;319585;-82
2023/11/17 09:12:53;;;;;;;12.23;7.93;;;;;;;;;;4395127;32;318553;-81
2023/11/17 09:15:23;;;;;;;13.50;7.10;;;;;;;;;;4387587;32;318204;-81
2023/11/17 09:17:51;;;;;;;8.50;7.03;;;;;;;;;;4405356;32;319837;-81
2023/11/17 09:20:20;;;;;;;8.93;5.97;;;;;;;;;;4403159;32;317512;-81
2023/11/17 09:22:49;;;;;;;9.63;7.33;;;;;;;;;;4414505;32;317529;-81
2023/11/17 09:25:17;;;;;;;9.57;6.90;;;;;;;;;;4402580;32;326294;-82
2023/11/17 09:27:45;;;;;;;14.47;6.27;;;;;;;;;;4394833;32;317919;-81
2023/11/17 09:30:14;;;;;;;11.30;7.37;;;;;;;;;;4376813;32;318254;-81
2023/11/17 09:32:43;;;;;;;14.20;9.00;;;;;;;;;;4399027;32;317843;-81
2023/11/17 09:35:13;;;;;;;14.33;9.93;;;;;;;;;;4372062;32;318324;-81
2023/11/17 09:37:46;;;;;;;13.97;9.07;;;;;;;;;;4390520;32;338671;-84
2023/11/17 09:40:18;;;;;;;12.90;8.53;;;;;;;;;;4371390;32;335372;-81
2023/11/17 09:42:47;;;;;;;19.77;7.80;;;;;;;;;;4396780;32;318396;-81
2023/11/17 09:45:19;;;;;;;11.23;8.90;;;;;;;;;;4385911;32;317957;-84
2023/11/17 09:47:48;;;;;;;13.50;9.93;;;;;;;;;;4395423;32;318881;-81
2023/11/17 09:50:18;;;;;;;20.53;10.20;;;;;;;;;;4387035;32;318889;-81
2023/11/17 09:52:47;;;;;;;13.27;9.57;;;;;;;;;;4396076;32;318700;-81
2023/11/17 09:55:20;;;;;;;16.47;9.57;;;;;;;;;;4385097;32;318483;-81
2023/11/17 09:57:49;;;;;;;14.87;9.97;;;;;;;;;;4394007;32;318533;-81
2023/11/17 10:00:20;;;;;;;13.33;8.80;;;;;;;;;;4384625;32;318312;-82
2023/11/17 10:02:51;;;;;;;15.03;8.73;;;;;;;;;;4394937;32;318417;-88
2023/11/17 10:05:19;;;;;;;10.93;8.20;;;;;;;;;;4384425;32;318437;-82
2023/11/17 10:07:48;;;;;;;14.33;8.47;;;;;;;;;;4395755;32;318466;-82
2023/11/17 10:10:19;;;;;;;8.70;6.57;;;;;;;;;;4384313;32;318856;-82
2023/11/17 10:12:48;;;;;;;16.27;8.40;;;;;;;;;;4396450;32;317346;-86
2023/11/17 10:15:16;;;;;;;15.70;8.40;;;;;;;;;;4387461;32;318523;-86
2023/11/17 10:17:47;;;;;;;20.13;13.33;;;;;;;;;;4397082;32;318588;-83
2023/11/17 10:20:17;;;;;;;22.67;14.57;;;;;;;;;;4387656;32;319423;-86
2023/11/17 10:22:49;;;;;;;27.83;18.90;;;;;;;;;;4396968;32;354897;-82
2023/11/17 10:25:19;;;;;;;23.03;13.27;;;;;;;;;;4392086;32;319536;-87
2023/11/17 10:27:49;;;;;;;15.80;7.97;;;;;;;;;;4398361;32;319612;-82
2023/11/17 10:30:17;;;;;;;11.77;7.80;;;;;;;;;;4387625;32;319548;-82
2023/11/17 10:32:50;;;;;;;8.53;6.13;;;;;;;;;;4394998;32;318504;-82
2023/11/17 10:35:24;;;;;;;10.10;7.03;;;;;;;;;;4387361;32;317457;-84
2023/11/17 10:37:54;;;;;;;22.37;11.27;;;;;;;;;;4397003;32;318605;-82
2023/11/17 10:40:28;;;;;;;19.07;10.83;;;;;;;;;;4386041;32;338061;-85
2023/11/17 10:43:07;;;;;;;61.37;30.87;;;;;;;;;;4401770;32;319698;-82
2023/11/17 10:45:35;;;;;;;30.43;14.77;;;;;;;;;;4383707;32;420294;-83
2023/11/17 10:48:03;;;;;;;33.87;18.27;;;;;;;;;;4396408;32;319166;-85
2023/11/17 10:50:30;;;;;;;14.50;9.53;;;;;;;;;;4385124;32;318872;-86
2023/11/17 10:52:58;;;;;;;17.47;9.77;;;;;;;;;;4393845;32;318521;-85
2023/11/17 10:55:36;;;;;;;20.50;9.03;;;;;;;;;;4387438;32;318332;-83
2023/11/17 10:58:07;;;;;;;48.33;26.50;;;;;;;;;;4394140;32;318167;-88
2023/11/17 11:00:37;;;;;;;9.17;5.13;;;;;;;;;;4388861;32;420246;-88
2023/11/17 11:03:06;;;;;;;15.73;8.83;;;;;;;;;;4400822;32;317201;-83
2023/11/17 11:05:38;;;;;;;23.83;11.77;;;;;;;;;;4380912;32;418215;-82
2023/11/17 11:08:13;;;;;;;7.90;5.47;;;;;;;;;;4395554;32;319434;-82
2023/11/17 11:10:49;;;;;;;8.10;4.67;;;;;;;;;;4382997;32;418103;-83
2023/11/17 11:13:16;;;;;;;10.47;5.57;;;;;;;;;;4385339;32;317327;-86
2023/11/17 11:15:43;;;;;;;6.73;4.90;;;;;;;;;;4397310;32;318687;-83
2023/11/17 11:18:15;;;;;;;8.80;6.30;;;;;;;;;;4386926;32;317151;-85
2023/11/17 11:20:45;;;;;;;4.93;3.57;;;;;;;;;;4395831;32;317622;-83
2023/11/17 11:23:15;;;;;;;7.00;4.37;;;;;;;;;;4388721;32;316676;-88
2023/11/17 11:25:45;;;;;;;7.77;4.37;;;;;;;;;;4398386;32;317321;-87
2023/11/17 11:28:15;;;;;;;8.77;4.27;;;;;;;;;;4387916;32;317487;-89
2023/11/17 11:30:43;;;;;;;11.20;5.07;;;;;;;;;;4391119;32;316802;-91
2023/11/17 11:33:11;;;;;;;7.67;4.70;;;;;;;;;;4379887;32;321206;-94
2023/11/17 11:35:40;;;;;;;8.33;5.80;;;;;;;;;;4383975;32;317655;-84
2023/11/17 11:38:09;;;;;;;9.27;5.33;;;;;;;;;;4383334;32;317061;-87
2023/11/17 11:40:37;;;;;;;10.13;6.80;;;;;;;;;;4377353;32;417809;-92
2023/11/17 11:43:06;;;;;;;14.63;7.60;;;;;;;;;;4393865;32;317904;-89
2023/11/17 11:45:34;;;;;;;10.53;6.87;;;;;;;;;;4385346;32;318271;-90
2023/11/17 11:48:02;;;;;;;19.43;7.20;;;;;;;;;;4397648;32;318686;-91
2023/11/17 11:50:37;;;;;;;9.33;5.50;;;;;;;;;;4384210;32;317759;-91
2023/11/17 11:53:24;;;;;;;16.10;6.20;;;;;;;;;;4396825;32;316791;-88
2023/11/17 11:55:53;;;;;;;13.43;6.67;;;;;;;;;;4384023;32;419276;-93
2023/11/17 11:58:22;;;;;;;10.80;5.77;;;;;;;;;;4379696;32;318244;-87
2023/11/17 12:00:51;;;;;;;11.90;6.17;;;;;;;;;;4389856;32;331613;-85
2023/11/17 12:03:18;;;;;;;10.03;6.13;;;;;;;;;;4386857;32;318268;-83
2023/11/17 12:05:45;;;;;;;13.17;7.03;;;;;;;;;;4396608;32;317591;-84
2023/11/17 12:08:24;;;;;;;18.97;13.03;;;;;;;;;;4384668;32;317833;-82
2023/11/17 12:10:55;;;;;;;11.60;5.50;;;;;;;;;;4393284;32;319594;-80
2023/11/17 12:13:54;;;;;;;9.53;5.23;;;;;;;;;;4382876;32;318574;-80
2023/11/17 12:16:22;;;;;;;11.60;5.33;;;;;;;;;;4338737;32;317220;-83
2023/11/17 12:18:50;;;;;;;10.47;6.50;;;;;;;;;;4385509;32;317938;-81
2023/11/17 12:21:18;;;;;;;13.07;5.63;;;;;;;;;;4388332;32;318356;-81
2023/11/17 12:23:56;;;;;;;13.20;7.17;;;;;;;;;;4399532;32;318807;-80
2023/11/17 12:26:25;;;;;;;14.53;7.27;;;;;;;;;;4386073;32;318434;-77
2023/11/17 12:28:54;;;;;;;15.37;9.70;;;;;;;;;;4396614;32;318485;-81
2023/11/17 12:31:22;;;;;;;19.00;12.63;;;;;;;;;;4382302;32;325708;-83
2023/11/17 12:33:50;;;;;;;18.30;13.03;;;;;;;;;;4387056;32;319704;-88
2023/11/17 12:36:18;;;;;;;17.20;10.30;;;;;;;;;;4370112;32;319477;-87
2023/11/17 12:38:50;;;;;;;17.53;8.60;;;;;;;;;;4378969;32;319425;-87
2023/11/17 12:41:17;;;;;;;10.67;6.97;;;;;;;;;;4375139;32;354633;-86
2023/11/17 12:43:47;;;;;;;14.77;9.40;;;;;;;;;;4381064;32;318335;-86
2023/11/17 12:46:16;;;;;;;22.80;15.30;;;;;;;;;;4386950;32;325104;-86
2023/11/17 12:48:44;;;;;;;22.50;14.17;;;;;;;;;;4397761;32;318887;-86
2023/11/17 12:51:11;;;;;;;23.00;12.70;;;;;;;;;;4389299;32;319840;-85
2023/11/17 12:53:40;;;;;;;16.93;10.90;;;;;;;;;;4400115;32;319589;-85
2023/11/17 12:56:08;;;;;;;19.17;12.70;;;;;;;;;;4383909;32;339634;-87
2023/11/17 12:58:35;;;;;;;21.03;14.10;;;;;;;;;;4386666;32;418865;-87
2023/11/17 13:01:14;;;;;;;16.40;10.27;;;;;;;;;;4398639;32;319304;-88
2023/11/17 13:03:43;;;;;;;15.47;9.60;;;;;;;;;;4386848;32;417233;-86
2023/11/17 13:06:10;;;;;;;22.63;10.03;;;;;;;;;;4389730;32;317374;-84
2023/11/17 13:08:38;;;;;;;14.97;8.57;;;;;;;;;;4400693;32;319347;-87
2023/11/17 13:11:07;;;;;;;14.27;8.33;;;;;;;;;;4400093;32;318221;-87
2023/11/17 13:13:37;;;;;;;14.03;9.07;;;;;;;;;;4389451;32;318185;-86
2023/11/17 13:16:08;;;;;;;16.73;7.00;;;;;;;;;;4399635;32;317843;-86
2023/11/17 13:18:36;;;;;;;11.47;5.43;;;;;;;;;;4386403;32;418281;-86
2023/11/17 13:21:05;;;;;;;7.57;5.63;;;;;;;;;;4398722;32;318510;-87
2023/11/17 13:23:31;;;;;;;10.97;5.30;;;;;;;;;;4388459;32;317625;-87
2023/11/17 13:25:59;;;;;;;12.53;6.00;;;;;;;;;;4396796;32;350624;-90
2023/11/17 13:28:26;;;;;;;12.83;7.43;;;;;;;;;;4387938;32;318839;-85
2023/11/17 13:30:53;;;;;;;13.77;7.13;;;;;;;;;;4393283;32;318440;-88
2023/11/17 13:33:38;;;;;;;17.10;11.17;;;;;;;;;;4388995;32;319513;-87
2023/11/17 13:36:08;;;;;;;14.80;9.90;;;;;;;;;;4399615;32;319266;-87
2023/11/17 13:38:52;;;;;;;15.87;11.47;;;;;;;;;;4386378;32;418339;-86
2023/11/17 13:41:19;;;;;;;17.73;11.40;;;;;;;;;;4387465;32;325898;-87
2023/11/17 13:43:47;;;;;;;16.50;10.00;;;;;;;;;;4398161;32;319216;-83
2023/11/17 13:46:14;;;;;;;22.03;13.30;;;;;;;;;;4389137;32;319504;-85
2023/11/17 13:48:43;;;;;;;24.63;15.03;;;;;;;;;;4396058;32;357321;-86
2023/11/17 13:51:15;;;;;;;21.13;9.87;;;;;;;;;;4389448;32;319686;-83
2023/11/17 13:53:42;;;;;;;23.00;13.50;;;;;;;;;;4396765;32;318495;-85
2023/11/17 13:56:09;;;;;;;17.63;12.03;;;;;;;;;;4385685;32;318635;-86
2023/11/17 13:58:36;;;;;;;23.97;13.03;;;;;;;;;;4395025;32;318672;-87
2023/11/17 14:01:07;;;;;;;21.57;13.07;;;;;;;;;;4398468;32;319475;-87
2023/11/17 14:03:34;;;;;;;24.23;14.90;;;;;;;;;;4384087;32;420087;-84
2023/11/17 14:06:02;;;;;;;26.20;17.30;;;;;;;;;;4396035;32;319406;-88
2023/11/17 14:08:30;;;;;;;21.73;15.37;;;;;;;;;;4385420;32;318983;-85
2023/11/17 14:10:57;;;;;;;29.83;18.20;;;;;;;;;;4398753;32;318782;-87
2023/11/17 14:13:25;;;;;;;23.83;14.80;;;;;;;;;;4389393;32;318431;-93
2023/11/17 14:15:52;;;;;;;22.33;16.23;;;;;;;;;;4393394;32;319712;-88
2023/11/17 14:18:19;;;;;;;25.87;18.17;;;;;;;;;;4371562;32;319238;-88